Time;durP1;ratioP1;P1;durP2;ratioP2;P2;SDS_P1;SDS_P2;PMS_P1;PMS_P2;Temp;Humidity;BMP_temperature;BMP_pressure;BME280_temperature;BME280_humidity;BME280_pressure;Samples;Min_cycle;Max_cycle;Signal;HPM_P1;HPM_P2
2022/01/24 00:01:11;;;;;;;9.30;7.10;;;8.50;81.40;8.60;97967.00;;;;5037711;28;20209;-88
2022/01/24 00:03:38;;;;;;;7.60;6.47;;;8.40;81.40;8.60;97968.00;;;;5053382;28;20228;-88
2022/01/24 00:06:09;;;;;;;8.70;7.23;;;8.40;81.40;8.50;97965.00;;;;5053325;28;20224;-87
2022/01/24 00:08:36;;;;;;;9.30;7.57;;;8.40;81.50;8.50;97965.00;;;;5053824;28;20680;-88
2022/01/24 00:11:07;;;;;;;8.27;6.50;;;8.40;81.50;8.50;97962.00;;;;5068471;22;20291;-84
2022/01/24 00:16:24;;;;;;;7.83;7.03;;;8.40;81.40;8.50;97967.00;;;;5060565;28;20204;-84
2022/01/24 00:27:06;;;;;;;8.00;7.07;;;8.40;81.50;8.50;97953.00;;;;5044062;28;20589;-84
2022/01/24 00:29:33;;;;;;;8.73;7.30;;;8.40;81.30;8.50;97958.00;;;;5041118;28;20198;-84
2022/01/24 00:32:01;;;;;;;6.90;6.20;;;8.40;81.40;8.50;97958.00;;;;5048151;28;20785;-84
2022/01/24 00:34:29;;;;;;;7.03;6.33;;;8.40;81.40;8.50;97950.00;;;;5051751;28;20228;-84
2022/01/24 00:36:56;;;;;;;6.97;6.13;;;8.40;81.40;8.50;97945.00;;;;5052130;28;20283;-84
2022/01/24 00:39:24;;;;;;;7.03;5.50;;;8.40;81.10;8.50;97953.00;;;;5052113;28;20199;-84
2022/01/24 00:42:03;;;;;;;6.33;5.73;;;8.40;81.40;8.50;97953.00;;;;5051437;28;20311;-84
2022/01/24 00:47:22;;;;;;;6.77;6.07;;;8.30;81.20;8.50;97948.00;;;;5046886;28;20189;-84
2022/01/24 00:53:01;;;;;;;6.33;5.73;;;8.30;81.20;8.40;97948.00;;;;5038086;28;20185;-84
2022/01/24 00:53:12;;;;;;;6.73;5.97;;;8.40;81.20;8.40;97962.00;;;;5035952;28;20223;-84
2022/01/24 00:55:40;;;;;;;6.53;5.87;;;8.30;81.40;8.40;97949.00;;;;5046923;28;20200;-84
2022/01/24 00:58:07;;;;;;;6.27;5.60;;;8.30;81.30;8.40;97950.00;;;;5043462;28;20196;-84
2022/01/24 01:00:34;;;;;;;5.97;5.37;;;8.30;81.30;8.40;97946.00;;;;5037666;28;20193;-84
2022/01/24 01:03:03;;;;;;;5.90;5.30;;;8.30;81.30;8.40;97946.00;;;;5051419;28;20199;-84
2022/01/24 01:05:44;;;;;;;7.33;5.77;;;8.30;81.30;8.40;97942.00;;;;5053297;28;20244;-84
2022/01/24 01:19:18;;;;;;;6.47;5.63;;;8.30;81.20;8.30;97921.00;;;;5055467;28;20322;-84
2022/01/24 01:21:45;;;;;;;7.03;5.40;;;8.30;81.20;8.30;97914.00;;;;5045928;28;20213;-84
2022/01/24 01:24:13;;;;;;;6.07;5.47;;;8.30;81.30;8.30;97911.00;;;;5045885;28;20568;-84
2022/01/24 01:26:45;;;;;;;6.83;5.53;;;8.30;81.20;8.30;97906.00;;;;5047987;28;20244;-84
2022/01/24 01:29:17;;;;;;;6.10;5.50;;;8.20;81.20;8.30;97906.00;;;;5055631;28;20200;-84
2022/01/24 01:31:53;;;;;;;7.07;5.70;;;8.20;81.00;8.30;97913.00;;;;5055788;28;20216;-84
2022/01/24 01:34:39;;;;;;;5.17;4.67;;;8.20;81.10;8.30;97910.00;;;;5051653;28;20201;-84
2022/01/24 01:37:27;;;;;;;7.80;5.40;;;8.20;81.10;8.30;97913.00;;;;5035489;28;20678;-84
2022/01/24 01:56:43;;;;;;;5.97;5.37;;;8.20;81.50;8.20;97912.00;;;;5049326;28;20197;-84
2022/01/24 01:59:10;;;;;;;6.00;5.17;;;8.20;81.50;8.20;97912.00;;;;5055088;28;20211;-84
2022/01/24 02:01:38;;;;;;;5.70;5.17;;;8.20;81.30;8.20;97904.00;;;;5055052;28;20212;-84
2022/01/24 02:04:05;;;;;;;7.60;5.47;;;8.20;81.30;8.20;97897.00;;;;5054841;28;20283;-85
2022/01/24 02:06:34;;;;;;;6.20;5.53;;;8.10;80.90;8.20;97895.00;;;;5054621;28;20221;-84
2022/01/24 02:09:06;;;;;;;5.53;5.00;;;8.10;80.80;8.10;97893.00;;;;5054829;28;20389;-84
2022/01/24 02:11:33;;;;;;;5.53;5.00;;;8.10;80.40;8.10;97886.00;;;;5062257;28;20227;-84
2022/01/24 02:14:04;;;;;;;7.17;5.17;;;8.10;80.30;8.00;97888.00;;;;5073586;28;20207;-84
2022/01/24 02:16:39;;;;;;;5.80;5.17;;;8.00;80.10;7.90;97884.00;;;;5056540;28;20232;-84
2022/01/24 02:19:15;;;;;;;5.47;4.93;;;8.00;79.90;7.90;97886.00;;;;5052598;28;20279;-84
2022/01/24 02:21:47;;;;;;;6.30;5.13;;;7.90;79.70;7.80;97876.00;;;;5054315;28;20212;-84
2022/01/24 02:24:17;;;;;;;6.57;4.90;;;7.90;79.70;7.70;97876.00;;;;5054307;28;20196;-84
2022/01/24 02:26:48;;;;;;;7.57;4.63;;;7.80;79.40;7.70;97872.00;;;;5053636;28;20221;-84
2022/01/24 02:29:26;;;;;;;6.33;4.63;;;7.70;79.50;7.60;97863.00;;;;5054129;28;20239;-84
2022/01/24 02:31:55;;;;;;;5.80;4.90;;;7.60;79.50;7.50;97864.00;;;;5054174;28;20208;-84
2022/01/24 02:34:31;;;;;;;5.67;5.10;;;7.60;79.70;7.50;97854.00;;;;5054128;28;20579;-84
2022/01/24 02:37:05;;;;;;;5.03;4.53;;;7.50;79.50;7.40;97855.00;;;;5054378;28;20254;-84
2022/01/24 02:51:16;;;;;;;5.20;4.70;;;7.20;79.50;7.00;97847.00;;;;5054113;28;20228;-84
2022/01/24 02:53:45;;;;;;;5.17;4.63;;;7.10;79.50;6.90;97840.00;;;;5053684;28;20199;-84
2022/01/24 02:56:12;;;;;;;5.53;4.67;;;7.00;79.50;6.80;97830.00;;;;5053686;28;20203;-84
2022/01/24 02:58:39;;;;;;;5.13;4.63;;;7.00;79.50;6.80;97826.00;;;;5053303;28;20196;-84
2022/01/24 03:01:07;;;;;;;5.10;4.43;;;6.90;80.00;6.70;97823.00;;;;5053527;28;20723;-84
2022/01/24 03:03:34;;;;;;;5.07;4.57;;;6.80;79.40;6.70;97828.00;;;;5053508;28;20247;-84
2022/01/24 03:06:02;;;;;;;5.00;4.50;;;6.80;79.40;6.60;97813.00;;;;5053249;28;20225;-84
2022/01/24 03:08:29;;;;;;;6.30;4.83;;;6.70;79.30;6.50;97815.00;;;;5053567;28;20576;-84
2022/01/24 03:10:59;;;;;;;6.17;4.77;;;6.70;79.40;6.40;97813.00;;;;5053384;28;20220;-84
2022/01/24 03:13:33;;;;;;;9.20;4.10;;;6.60;79.20;6.40;97819.00;;;;5053584;28;20607;-84
2022/01/24 03:16:04;;;;;;;4.73;4.23;;;6.60;79.30;6.30;97818.00;;;;5053305;28;20653;-84
2022/01/24 03:18:32;;;;;;;5.07;4.57;;;6.50;79.30;6.20;97810.00;;;;5053624;28;20201;-84
2022/01/24 03:20:59;;;;;;;5.47;4.60;;;6.40;79.20;6.20;97806.00;;;;5053367;28;20243;-84
2022/01/24 03:23:27;;;;;;;4.97;4.47;;;6.30;79.00;6.10;97801.00;;;;5054025;28;20683;-84
2022/01/24 03:25:57;;;;;;;5.57;5.07;;;6.30;79.00;6.00;97812.00;;;;5058961;28;20224;-84
2022/01/24 03:28:25;;;;;;;6.00;5.37;;;6.20;79.10;6.00;97809.00;;;;5059188;28;20280;-84
2022/01/24 03:30:52;;;;;;;6.97;5.17;;;6.10;79.30;5.90;97802.00;;;;5055432;28;20301;-84
2022/01/24 03:33:20;;;;;;;5.50;4.67;;;6.10;79.50;5.90;97807.00;;;;5053470;28;20211;-84
2022/01/24 03:35:47;;;;;;;5.50;5.00;;;6.00;79.50;5.80;97804.00;;;;5052744;28;20645;-83
2022/01/24 03:38:15;;;;;;;7.20;4.83;;;6.00;79.50;5.80;97804.00;;;;5053246;28;20196;-84
2022/01/24 03:40:42;;;;;;;5.40;4.90;;;6.00;79.50;5.70;97807.00;;;;5052426;28;20216;-84
2022/01/24 03:43:11;;;;;;;6.33;5.03;;;5.90;79.50;5.70;97802.00;;;;5053029;28;20201;-84
2022/01/24 03:45:45;;;;;;;6.50;5.10;;;5.80;80.30;5.60;97805.00;;;;5052797;28;20678;-84
2022/01/24 03:48:26;;;;;;;7.87;5.63;;;5.80;79.80;5.60;97811.00;;;;5053274;28;20606;-84
2022/01/24 03:50:54;;;;;;;6.07;5.47;;;5.70;80.00;5.60;97811.00;;;;5052618;28;20584;-84
2022/01/24 03:53:21;;;;;;;5.80;4.30;;;5.70;80.00;5.50;97808.00;;;;5053035;28;20207;-84
2022/01/24 03:55:49;;;;;;;5.60;5.10;;;5.70;80.20;5.50;97804.00;;;;5053101;28;20201;-84
2022/01/24 03:58:17;;;;;;;5.87;5.00;;;5.60;80.30;5.50;97792.00;;;;5052862;28;20215;-84
2022/01/24 04:00:44;;;;;;;6.73;5.70;;;5.60;80.40;5.40;97788.00;;;;5052480;28;20562;-84
2022/01/24 04:03:14;;;;;;;6.37;5.10;;;5.60;80.40;5.40;97790.00;;;;5052761;28;20188;-84
2022/01/24 04:05:41;;;;;;;6.80;5.30;;;5.50;80.50;5.40;97789.00;;;;5054989;28;20208;-84
2022/01/24 04:08:09;;;;;;;6.30;5.70;;;5.50;80.50;5.30;97792.00;;;;5052435;28;20201;-84
2022/01/24 04:10:42;;;;;;;6.43;5.83;;;5.50;80.50;5.30;97793.00;;;;5051823;28;20607;-84
2022/01/24 04:13:23;;;;;;;7.03;5.90;;;5.50;80.70;5.30;97792.00;;;;5052191;28;20193;-84
2022/01/24 04:18:50;;;;;;;7.57;6.43;;;5.40;80.70;5.30;97797.00;;;;5034412;28;20197;-84
2022/01/24 04:21:22;;;;;;;7.10;6.40;;;5.40;80.80;5.20;97795.00;;;;5041016;28;20223;-84
2022/01/24 04:23:58;;;;;;;7.63;6.33;;;5.40;80.80;5.20;97797.00;;;;5052964;28;20193;-84
2022/01/24 04:26:26;;;;;;;6.33;5.60;;;5.40;80.80;5.10;97794.00;;;;5050290;28;20218;-84
2022/01/24 04:28:54;;;;;;;7.50;5.83;;;5.30;80.70;5.10;97785.00;;;;5044303;28;20291;-84
2022/01/24 04:31:23;;;;;;;10.03;5.93;;;5.30;80.60;5.10;97783.00;;;;5051969;28;20219;-85
2022/01/24 04:33:51;;;;;;;6.50;5.63;;;5.30;80.60;5.10;97781.00;;;;5052296;28;20242;-85
2022/01/24 04:36:21;;;;;;;7.23;5.73;;;5.20;80.50;5.00;97780.00;;;;5051014;28;20192;-84
2022/01/24 04:38:49;;;;;;;6.90;5.83;;;5.20;80.40;5.00;97788.00;;;;5053131;28;20670;-84
2022/01/24 04:41:20;;;;;;;6.10;5.27;;;5.20;80.50;5.00;97779.00;;;;5053639;28;20584;-84
2022/01/24 04:44:01;;;;;;;7.50;5.57;;;5.20;80.50;5.00;97775.00;;;;5052629;28;20192;-84
2022/01/24 04:46:55;;;;;;;6.20;5.47;;;5.10;80.60;4.90;97779.00;;;;5048021;28;20220;-85
2022/01/24 04:52:22;;;;;;;5.77;5.17;;;5.10;80.60;4.90;97777.00;;;;5050687;28;20375;-84
2022/01/24 04:54:50;;;;;;;7.83;5.27;;;5.00;80.80;4.90;97783.00;;;;5051561;28;20200;-84
2022/01/24 04:57:22;;;;;;;7.53;5.60;;;5.00;80.80;4.80;97790.00;;;;5051615;28;20295;-84
2022/01/24 04:59:52;;;;;;;7.40;6.23;;;5.00;80.90;4.80;97782.00;;;;5051786;28;20200;-85
2022/01/24 05:02:23;;;;;;;11.10;6.60;;;5.00;80.80;4.80;97784.00;;;;5056754;28;20298;-85
2022/01/24 05:04:52;;;;;;;6.83;5.80;;;5.00;80.80;4.80;97797.00;;;;5031918;28;20201;-84
2022/01/24 05:07:19;;;;;;;8.27;5.40;;;5.00;81.00;4.80;97790.00;;;;5048736;28;20228;-84
2022/01/24 05:09:52;;;;;;;7.10;6.00;;;4.90;81.10;4.80;97795.00;;;;5051828;28;20189;-84
2022/01/24 05:12:28;;;;;;;7.73;5.80;;;4.90;81.20;4.80;97797.00;;;;5051593;28;20250;-85
2022/01/24 05:23:29;;;;;;;10.17;6.97;;;4.90;81.20;4.70;97798.00;;;;5052005;28;20254;-86
2022/01/24 05:25:58;;;;;;;10.47;7.03;;;4.90;81.30;4.70;97797.00;;;;5051239;28;20624;-85
2022/01/24 05:28:27;;;;;;;9.50;6.70;;;4.80;81.40;4.70;97796.00;;;;5051400;28;20292;-85
2022/01/24 05:30:54;;;;;;;8.90;6.93;;;4.80;81.40;4.70;97800.00;;;;5050822;28;20239;-85
2022/01/24 05:33:23;;;;;;;9.90;6.83;;;4.80;81.40;4.70;97802.00;;;;5051674;28;20201;-85
2022/01/24 05:35:50;;;;;;;9.60;6.97;;;4.80;81.50;4.70;97802.00;;;;5051437;28;20567;-85
2022/01/24 05:38:17;;;;;;;11.03;7.50;;;4.80;81.50;4.70;97796.00;;;;5051112;28;20244;-85
2022/01/24 05:40:45;;;;;;;8.27;6.73;;;4.80;81.40;4.70;97793.00;;;;5051295;28;20244;-85
2022/01/24 05:43:12;;;;;;;9.53;6.40;;;4.70;81.40;4.70;97788.00;;;;5051739;28;20192;-85
2022/01/24 05:45:41;;;;;;;8.63;6.30;;;4.80;81.40;4.70;97796.00;;;;5048245;28;20209;-85
2022/01/24 05:48:08;;;;;;;8.40;6.43;;;4.80;81.40;4.70;97791.00;;;;5044567;28;20217;-85
2022/01/24 05:50:37;;;;;;;9.53;6.90;;;4.80;81.40;4.60;97794.00;;;;5050754;28;20228;-85
2022/01/24 05:53:04;;;;;;;8.30;6.40;;;4.80;81.50;4.60;97788.00;;;;5059283;28;20205;-85
2022/01/24 05:55:31;;;;;;;7.60;6.07;;;4.70;81.50;4.60;97789.00;;;;5055905;28;20200;-85
2022/01/24 05:57:59;;;;;;;8.77;6.67;;;4.70;81.50;4.60;97790.00;;;;5050205;28;20279;-85
2022/01/24 06:00:26;;;;;;;14.60;6.20;;;4.70;81.50;4.60;97790.00;;;;5066779;28;20699;-85
2022/01/24 06:02:53;;;;;;;15.97;6.77;;;4.70;81.50;4.60;97795.00;;;;5075028;28;20205;-85
2022/01/24 06:05:20;;;;;;;28.47;6.90;;;4.70;81.50;4.60;97797.00;;;;5071338;28;20756;-85
2022/01/24 06:07:49;;;;;;;17.30;6.47;;;4.70;81.50;4.50;97801.00;;;;5054290;28;20217;-85
2022/01/24 06:10:16;;;;;;;10.23;6.40;;;4.80;81.60;4.50;97806.00;;;;5055084;28;20283;-84
2022/01/24 06:12:44;;;;;;;21.77;7.43;;;4.70;81.50;4.50;97803.00;;;;5054958;28;20723;-84
2022/01/24 06:15:11;;;;;;;21.57;6.63;;;4.70;81.60;4.50;97821.00;;;;5041056;28;20200;-84
2022/01/24 06:17:38;;;;;;;22.43;5.83;;;4.70;81.40;4.50;97812.00;;;;5054842;28;20203;-85
2022/01/24 06:20:07;;;;;;;16.87;6.53;;;4.60;81.40;4.40;97803.00;;;;5051441;28;20204;-85
2022/01/24 06:22:37;;;;;;;10.87;5.93;;;4.60;81.30;4.40;97813.00;;;;5054387;28;20220;-84
2022/01/24 06:25:09;;;;;;;8.40;5.93;;;4.60;81.90;4.40;97813.00;;;;5053458;28;20192;-85
2022/01/24 06:27:36;;;;;;;7.63;5.93;;;4.60;81.20;4.40;97814.00;;;;5033956;28;20225;-84
2022/01/24 06:30:03;;;;;;;8.47;5.90;;;4.50;81.10;4.40;97811.00;;;;5036066;28;20568;-84
2022/01/24 06:32:30;;;;;;;8.00;5.57;;;4.50;81.10;4.40;97816.00;;;;5053819;28;20872;-84
2022/01/24 06:34:57;;;;;;;8.73;5.40;;;4.50;81.10;4.40;97807.00;;;;5052768;28;20201;-83
2022/01/24 06:37:24;;;;;;;7.83;5.80;;;4.40;81.10;4.40;97816.00;;;;5054424;28;20205;-84
2022/01/24 06:39:52;;;;;;;8.67;6.17;;;4.30;81.20;4.40;97821.00;;;;5054703;28;20573;-83
2022/01/24 06:42:23;;;;;;;6.77;6.00;;;4.40;81.30;4.40;97819.00;;;;5037256;28;20217;-83
2022/01/24 06:44:50;;;;;;;6.70;5.83;;;4.40;81.40;4.40;97822.00;;;;5038818;28;20295;-83
2022/01/24 06:47:17;;;;;;;6.03;5.50;;;4.40;81.50;4.40;97825.00;;;;5040304;28;20225;-83
2022/01/24 06:49:44;;;;;;;6.20;5.60;;;4.40;81.50;4.40;97826.00;;;;5037852;28;20198;-82
2022/01/24 06:52:13;;;;;;;6.57;5.83;;;4.40;81.60;4.40;97829.00;;;;5041399;28;20576;-83
2022/01/24 06:54:43;;;;;;;6.90;6.20;;;4.40;81.70;4.40;97827.00;;;;5056614;28;20513;-83
2022/01/24 06:57:12;;;;;;;7.33;5.97;;;4.40;81.60;4.40;97818.00;;;;5055821;28;20193;-83
2022/01/24 06:59:41;;;;;;;6.77;5.60;;;4.40;81.60;4.40;97830.00;;;;5054399;28;20207;-83
2022/01/24 07:02:10;;;;;;;7.60;6.03;;;4.40;81.60;4.40;97836.00;;;;5053315;28;20236;-82
2022/01/24 07:04:39;;;;;;;6.90;6.10;;;4.40;81.60;4.40;97838.00;;;;5060605;28;20193;-83
2022/01/24 07:07:06;;;;;;;7.30;6.23;;;4.40;81.70;4.40;97827.00;;;;5057625;28;20220;-82
2022/01/24 07:09:34;;;;;;;6.00;5.47;;;4.30;81.60;4.40;97832.00;;;;5057387;28;20199;-85
2022/01/24 07:12:01;;;;;;;6.67;5.70;;;4.40;81.70;4.40;97830.00;;;;5052669;28;20714;-83
2022/01/24 07:14:28;;;;;;;6.77;6.10;;;4.40;81.70;4.40;97833.00;;;;5048829;28;20193;-83
2022/01/24 07:17:13;;;;;;;6.00;5.40;;;4.40;81.70;4.40;97834.00;;;;5045174;28;20196;-83
2022/01/24 07:19:40;;;;;;;6.17;5.53;;;4.40;81.60;4.40;97837.00;;;;5047983;28;21368;-83
2022/01/24 07:22:08;;;;;;;6.23;5.60;;;4.40;81.60;4.40;97848.00;;;;5051545;28;20717;-83
2022/01/24 07:24:36;;;;;;;7.03;6.07;;;4.40;81.70;4.40;97839.00;;;;5049166;28;20196;-83
2022/01/24 07:27:04;;;;;;;6.73;6.07;;;4.40;81.80;4.40;97842.00;;;;5049947;28;20308;-82
2022/01/24 07:29:31;;;;;;;6.90;5.90;;;4.40;81.70;4.40;97853.00;;;;5042213;28;20203;-82
2022/01/24 07:32:02;;;;;;;6.93;6.17;;;4.40;81.80;4.40;97857.00;;;;5048245;28;20223;-83
2022/01/24 07:34:29;;;;;;;6.73;5.57;;;4.40;81.80;4.40;97860.00;;;;5053862;28;20674;-83
2022/01/24 07:36:57;;;;;;;6.50;5.73;;;4.40;81.90;4.50;97859.00;;;;5043577;28;20574;-83
2022/01/24 07:39:24;;;;;;;6.50;5.90;;;4.40;81.80;4.50;97856.00;;;;5040989;28;20190;-83
2022/01/24 07:41:52;;;;;;;5.90;5.30;;;4.40;81.80;4.50;97860.00;;;;5050328;28;20213;-83
2022/01/24 07:44:22;;;;;;;7.70;6.40;;;4.50;81.90;4.50;97864.00;;;;5041040;28;20193;-83
2022/01/24 07:46:50;;;;;;;6.73;6.03;;;4.40;81.80;4.50;97864.00;;;;5038992;28;20284;-83
2022/01/24 07:49:18;;;;;;;7.50;6.80;;;4.40;81.80;4.50;97859.00;;;;5037412;28;20197;-83
2022/01/24 07:51:45;;;;;;;7.57;6.03;;;4.40;81.80;4.50;97864.00;;;;5044393;28;20240;-83
2022/01/24 07:54:12;;;;;;;7.03;6.33;;;4.50;81.90;4.50;97860.00;;;;5038474;28;20217;-83
2022/01/24 07:56:40;;;;;;;7.30;6.60;;;4.50;81.90;4.50;97862.00;;;;5046981;28;20197;-83
2022/01/24 07:59:08;;;;;;;7.27;5.90;;;4.50;82.00;4.60;97857.00;;;;5052450;28;20201;-82
2022/01/24 08:01:35;;;;;;;6.63;6.03;;;4.50;82.00;4.60;97861.00;;;;5047864;28;20219;-83
2022/01/24 08:04:02;;;;;;;7.67;6.87;;;4.50;82.00;4.60;97871.00;;;;5034396;28;20217;-83
2022/01/24 08:06:31;;;;;;;7.77;6.17;;;4.50;82.00;4.60;97867.00;;;;5041584;28;20666;-83
2022/01/24 08:08:58;;;;;;;7.10;6.40;;;4.50;82.10;4.60;97866.00;;;;5048182;28;20304;-83
2022/01/24 08:11:25;;;;;;;7.80;6.93;;;4.60;82.30;4.60;97875.00;;;;5044823;28;20221;-83
2022/01/24 08:13:54;;;;;;;8.47;7.07;;;4.60;82.30;4.70;97871.00;;;;5051623;28;20570;-83
2022/01/24 08:16:22;;;;;;;9.63;7.63;;;4.60;82.50;4.70;97870.00;;;;5040242;28;20252;-83
2022/01/24 08:18:51;;;;;;;7.83;7.00;;;4.60;82.50;4.70;97869.00;;;;5047298;28;20190;-83
2022/01/24 08:21:19;;;;;;;7.07;6.17;;;4.60;82.70;4.80;97866.00;;;;5047710;28;20217;-83
2022/01/24 08:23:47;;;;;;;8.03;6.77;;;4.70;82.90;4.80;97872.00;;;;5045518;28;20196;-83
2022/01/24 08:26:14;;;;;;;7.47;6.43;;;4.70;82.90;4.90;97871.00;;;;5039521;28;20582;-82
2022/01/24 08:28:42;;;;;;;6.87;6.17;;;4.70;83.10;4.90;97875.00;;;;5042367;28;20235;-83
2022/01/24 08:31:09;;;;;;;7.27;6.57;;;4.80;83.30;5.00;97885.00;;;;5048962;28;20716;-83
2022/01/24 08:33:36;;;;;;;6.77;6.07;;;4.80;84.30;5.10;97879.00;;;;5053108;28;20569;-83
2022/01/24 08:36:08;;;;;;;7.03;6.33;;;4.90;83.90;5.10;97886.00;;;;5034926;28;20281;-82
2022/01/24 08:38:36;;;;;;;6.70;6.07;;;5.00;84.10;5.20;97880.00;;;;5044144;28;20197;-82
2022/01/24 08:41:11;;;;;;;7.43;6.20;;;5.10;84.40;5.30;97896.00;;;;5035660;28;20230;-83
2022/01/24 08:43:51;;;;;;;6.37;5.77;;;5.10;84.60;5.40;97892.00;;;;5045076;28;20207;-83
2022/01/24 08:46:20;;;;;;;6.93;6.27;;;5.20;84.70;5.50;97892.00;;;;5038308;28;20201;-83
2022/01/24 08:48:47;;;;;;;6.53;5.83;;;5.30;84.90;5.70;97898.00;;;;5030287;28;20221;-83
2022/01/24 08:51:18;;;;;;;8.90;6.27;;;5.40;85.00;5.80;97895.00;;;;5042377;28;20769;-83
2022/01/24 08:53:45;;;;;;;6.93;6.23;;;5.50;85.00;5.80;97902.00;;;;5053668;28;20204;-83
2022/01/24 08:56:13;;;;;;;7.47;6.77;;;5.60;85.10;5.90;97905.00;;;;5037241;28;20204;-83
2022/01/24 08:58:42;;;;;;;7.37;6.57;;;5.60;85.00;6.00;97901.00;;;;5041250;28;20202;-83
2022/01/24 09:01:09;;;;;;;7.43;6.63;;;5.70;85.00;6.10;97903.00;;;;5033847;28;20209;-83
2022/01/24 09:03:39;;;;;;;7.03;6.33;;;5.70;84.90;6.10;97905.00;;;;5047032;28;20682;-83
2022/01/24 09:06:09;;;;;;;6.90;6.20;;;5.80;84.80;6.20;97897.00;;;;5048843;28;20202;-82
2022/01/24 09:08:37;;;;;;;7.10;6.37;;;5.90;84.80;6.20;97905.00;;;;5039401;28;20236;-82
2022/01/24 09:11:04;;;;;;;7.83;6.10;;;6.00;84.80;6.30;97910.00;;;;5054416;28;20220;-82
2022/01/24 09:13:33;;;;;;;6.90;6.20;;;6.00;84.80;6.40;97921.00;;;;5048979;28;20204;-82
2022/01/24 09:16:01;;;;;;;6.80;6.07;;;6.10;85.00;6.40;97911.00;;;;5053044;28;20201;-83
2022/01/24 09:18:29;;;;;;;6.07;5.53;;;6.20;85.10;6.50;97906.00;;;;5044694;28;20194;-82
2022/01/24 09:20:58;;;;;;;6.47;5.87;;;6.20;84.80;6.50;97915.00;;;;5039615;28;20719;-82
2022/01/24 09:23:25;;;;;;;7.53;6.77;;;6.30;85.00;6.60;97922.00;;;;5042214;28;20201;-83
2022/01/24 09:25:53;;;;;;;6.57;5.97;;;6.40;84.80;6.70;97926.00;;;;5047018;28;20646;-82
2022/01/24 09:28:21;;;;;;;6.43;5.83;;;6.40;85.20;6.70;97920.00;;;;5048472;28;20220;-83
2022/01/24 09:30:50;;;;;;;8.00;7.13;;;6.50;85.20;6.80;97912.00;;;;5058912;28;20216;-83
2022/01/24 09:33:17;;;;;;;7.17;6.47;;;6.60;85.40;6.90;97919.00;;;;5059577;28;20262;-82
2022/01/24 09:35:46;;;;;;;7.33;6.63;;;6.60;85.20;7.00;97933.00;;;;5056395;28;20197;-82
2022/01/24 09:38:13;;;;;;;7.17;6.47;;;6.70;85.20;7.00;97935.00;;;;5055939;28;20562;-83
2022/01/24 09:40:41;;;;;;;7.53;6.60;;;6.80;85.20;7.10;97936.00;;;;5051870;28;20607;-82
2022/01/24 09:43:09;;;;;;;9.67;7.50;;;6.90;85.00;7.10;97934.00;;;;5056033;28;20185;-83
2022/01/24 09:45:37;;;;;;;7.77;6.97;;;6.90;83.20;7.10;97938.00;;;;5054213;28;20205;-83
2022/01/24 09:48:06;;;;;;;9.93;8.13;;;7.00;83.70;7.10;97941.00;;;;5062725;28;20217;-83
2022/01/24 09:50:33;;;;;;;10.70;9.13;;;7.00;82.20;7.10;97938.00;;;;5051443;28;20338;-83
2022/01/24 09:53:01;;;;;;;14.40;9.87;;;7.00;82.80;7.10;97942.00;;;;5050291;28;20197;-83
2022/01/24 09:55:28;;;;;;;12.60;9.57;;;7.00;81.10;7.10;97943.00;;;;5057975;28;20205;-83
2022/01/24 09:57:55;;;;;;;13.43;10.20;;;7.00;81.80;7.10;97947.00;;;;5062301;28;20200;-83
2022/01/24 10:00:27;;;;;;;15.07;10.60;;;7.00;81.00;7.10;97956.00;;;;5053569;28;20283;-83
2022/01/24 10:02:56;;;;;;;14.50;10.93;;;7.00;81.90;7.10;97953.00;;;;5055423;28;20232;-83
2022/01/24 10:05:27;;;;;;;12.27;10.10;;;7.00;82.10;7.10;97954.00;;;;5054300;28;20643;-83
2022/01/24 10:07:58;;;;;;;13.67;10.33;;;6.90;82.10;7.10;97951.00;;;;5053674;28;20642;-84
2022/01/24 10:10:38;;;;;;;11.47;8.87;;;6.90;81.70;7.10;97948.00;;;;5055416;28;20201;-83
2022/01/24 10:16:26;;;;;;;14.20;8.70;;;6.90;82.20;7.10;97949.00;;;;5051346;28;20195;-83
2022/01/24 10:19:11;;;;;;;10.97;8.20;;;6.90;82.70;7.10;97938.00;;;;5056896;28;20192;-82
2022/01/24 10:21:43;;;;;;;10.60;8.03;;;6.90;83.20;7.20;97933.00;;;;5054460;28;20642;-83
2022/01/24 10:24:13;;;;;;;12.00;7.80;;;7.00;83.50;7.30;97943.00;;;;5057569;28;20291;-82
2022/01/24 10:26:40;;;;;;;13.47;9.23;;;6.90;83.30;7.30;97935.00;;;;5056855;28;20216;-83
2022/01/24 10:29:13;;;;;;;17.00;9.33;;;7.00;83.40;7.40;97942.00;;;;5053874;28;20217;-83
2022/01/24 10:31:49;;;;;;;11.33;8.50;;;7.00;83.10;7.40;97938.00;;;;5038355;28;20720;-82
2022/01/24 10:34:27;;;;;;;11.20;8.13;;;7.10;82.90;7.40;97940.00;;;;5057424;28;20203;-83
2022/01/24 10:36:57;;;;;;;12.27;8.07;;;7.10;83.30;7.50;97943.00;;;;5061991;28;20211;-83
2022/01/24 10:39:31;;;;;;;10.67;8.33;;;7.10;83.30;7.60;97950.00;;;;5059062;28;20201;-83
2022/01/24 10:45:15;;;;;;;16.90;8.93;;;7.20;82.60;7.60;97938.00;;;;5038862;28;20193;-83
2022/01/24 10:47:45;;;;;;;13.10;9.43;;;7.30;83.40;7.70;97943.00;;;;5038481;28;20696;-84
2022/01/24 10:50:22;;;;;;;10.67;9.03;;;7.30;83.50;7.70;97947.00;;;;5050813;28;20735;-83
2022/01/24 10:52:52;;;;;;;10.70;8.93;;;7.40;83.50;7.80;97937.00;;;;5053152;28;20284;-82
2022/01/24 10:55:24;;;;;;;11.00;8.97;;;7.40;83.40;7.80;97940.00;;;;5042200;28;20203;-83
2022/01/24 10:57:58;;;;;;;10.53;8.73;;;7.40;83.70;7.90;97940.00;;;;5060517;28;20247;-83
2022/01/24 11:00:29;;;;;;;11.33;8.57;;;7.50;83.50;8.00;97938.00;;;;5044441;28;20204;-83
2022/01/24 11:03:00;;;;;;;11.13;8.50;;;7.50;84.40;8.00;97939.00;;;;5044075;28;20193;-83
2022/01/24 11:05:30;;;;;;;9.77;8.27;;;7.60;83.50;8.10;97926.00;;;;5054047;28;20279;-83
2022/01/24 11:08:01;;;;;;;9.40;8.40;;;7.60;83.60;8.20;97935.00;;;;5055388;28;20203;-83
2022/01/24 11:10:30;;;;;;;10.00;7.80;;;7.70;83.60;8.20;97933.00;;;;5054168;28;20227;-82
2022/01/24 11:12:58;;;;;;;9.57;8.03;;;7.80;83.70;8.30;97928.00;;;;5035923;28;20194;-83
2022/01/24 11:15:27;;;;;;;7.77;6.90;;;7.80;84.10;8.40;97933.00;;;;5051164;28;20726;-83
2022/01/24 11:17:55;;;;;;;8.27;7.37;;;7.90;83.60;8.40;97937.00;;;;5061101;28;20197;-83
2022/01/24 11:20:29;;;;;;;9.37;7.87;;;7.90;83.70;8.50;97930.00;;;;5053410;28;20221;-83
2022/01/24 11:23:01;;;;;;;7.93;7.13;;;8.00;83.60;8.50;97921.00;;;;5053017;28;20258;-83
2022/01/24 11:25:30;;;;;;;8.93;7.37;;;8.10;83.60;8.60;97916.00;;;;5052851;28;20623;-83
2022/01/24 11:27:57;;;;;;;7.67;6.87;;;8.10;83.30;8.60;97922.00;;;;5054513;28;20192;-83
2022/01/24 11:30:31;;;;;;;9.53;7.03;;;8.20;83.10;8.60;97914.00;;;;5053248;28;20204;-83
2022/01/24 11:33:04;;;;;;;8.53;7.63;;;8.10;82.90;8.60;97911.00;;;;5064429;28;20238;-83
2022/01/24 11:35:38;;;;;;;8.50;7.53;;;8.20;82.20;8.50;97912.00;;;;5055967;28;20193;-83
2022/01/24 11:38:27;;;;;;;9.37;7.70;;;8.20;81.10;8.40;97911.00;;;;5050227;28;20188;-82
2022/01/24 11:41:00;;;;;;;8.43;7.60;;;8.20;80.40;8.30;97907.00;;;;5050184;28;20271;-83
2022/01/24 11:43:36;;;;;;;7.53;6.77;;;8.10;80.60;8.20;97906.00;;;;5037387;28;20200;-83
2022/01/24 11:46:08;;;;;;;8.63;7.40;;;8.00;80.50;8.10;97903.00;;;;5043462;28;20666;-83
2022/01/24 11:48:38;;;;;;;7.87;6.83;;;8.00;80.80;8.00;97915.00;;;;5049125;28;20212;-82
2022/01/24 11:51:09;;;;;;;7.57;6.80;;;7.90;80.80;8.00;97910.00;;;;5044531;28;20217;-82
2022/01/24 11:53:44;;;;;;;7.37;6.67;;;7.80;80.90;7.90;97903.00;;;;5042523;28;20197;-82
2022/01/24 11:56:22;;;;;;;7.60;6.83;;;7.80;81.10;7.90;97906.00;;;;5064939;28;20195;-82
2022/01/24 11:58:50;;;;;;;7.73;6.77;;;7.70;81.10;7.90;97905.00;;;;5058924;28;20200;-84
2022/01/24 12:01:39;;;;;;;8.37;6.53;;;8.10;81.40;7.90;97900.00;;;;5059280;28;20209;-82
2022/01/24 12:04:07;;;;;;;7.37;6.60;;;7.70;80.80;7.80;97894.00;;;;5042443;28;20255;-83
2022/01/24 12:07:19;;;;;;;8.50;7.10;;;7.70;82.30;7.80;97892.00;;;;5047332;28;20192;-82
2022/01/24 12:09:48;;;;;;;9.40;7.43;;;7.70;81.20;7.80;97881.00;;;;5052709;28;20212;-83
2022/01/24 12:12:47;;;;;;;8.20;6.77;;;7.60;81.80;7.80;97882.00;;;;5033991;28;20606;-84
2022/01/24 12:16:01;;;;;;;8.93;7.37;;;7.60;81.80;7.80;97884.00;;;;5041621;28;20193;-84
2022/01/24 12:19:02;;;;;;;7.60;6.80;;;7.60;81.70;7.80;97883.00;;;;5009461;28;20201;-84
2022/01/24 12:21:33;;;;;;;7.90;6.77;;;7.60;81.90;7.80;97880.00;;;;5055952;28;20227;-84
2022/01/24 12:24:05;;;;;;;8.57;7.23;;;7.70;82.30;7.80;97881.00;;;;5063453;28;20194;-83
2022/01/24 12:26:37;;;;;;;7.97;6.70;;;7.60;82.00;7.80;97871.00;;;;5054457;28;20196;-84
2022/01/24 12:29:12;;;;;;;8.67;6.73;;;7.60;82.00;7.80;97871.00;;;;5055451;28;20210;-84
2022/01/24 12:31:46;;;;;;;9.33;6.97;;;7.60;82.30;7.80;97863.00;;;;5067817;28;20212;-84
2022/01/24 12:34:39;;;;;;;9.00;7.17;;;7.60;82.50;7.80;97865.00;;;;5060085;28;20625;-84
2022/01/24 12:37:23;;;;;;;6.90;6.20;;;7.60;82.00;7.80;97868.00;;;;5036632;28;20196;-84